Latest Coastal Weather Observations for Cape Flattery

IDQ60701

Issued at 4:21 pm EST Tuesday 25 April 2017 (issued every 10 minutes, with the page automatically refreshed every 10 minutes)

About coastal observations | Map of coastal stations | Coastal observations for QLD | Marine services | Other Formats
Station Details ID: 031213 Name: CAPE FLATTERY Lat: -14.97 Lon: 145.31 Height: 18.5 m
Data from the previous 72 hours. | See also: Recent months at Cape Flattery
Date/Time
EST
Temp
°C
Wind Pressure Rain since
9am
mm
Weather Cloud Vis
km
Sea
Height
m
Swell
Dir  Spd
kts
Gust
kts
hPa Trend Height
m
Period
s
Dir
25/04:00pm 28.7 SE 15 19 1011.5 - 0.2 - - - - - - -
25/03:30pm 28.6 SE 15 19 1011.5 - 0.2 - - - - - - -
25/03:00pm 29.4 SE 16 22 1011.8 - 0.2 - - - - - - -
25/02:30pm 29.1 SE 16 20 1011.9 - 0.2 - - - - - - -
25/02:00pm 29.3 SE 17 23 1012.2 - 0.2 - - - - - - -
25/01:30pm 29.4 SE 16 21 1012.5 - 0.2 - - - - - - -
25/01:00pm 29.3 SE 15 20 1012.9 - 0.2 - - - - - - -
25/12:30pm 29.6 SE 15 22 1013.2 - 0.2 - - - - - - -
25/12:00pm 28.9 SE 18 24 1013.6 - 0.2 - - - - - - -
25/11:30am 28.8 SE 19 25 1013.9 - 0.2 - - - - - - -
25/11:00am 28.7 SE 17 24 1014.3 - 0.2 - - - - - - -
25/10:30am 28.7 SE 17 22 1014.6 - 0.2 - - - - - - -
25/10:00am 28.8 SE 16 21 1015.0 - 0.2 - - - - - - -
25/09:30am 28.6 SE 17 22 1014.9 - 0.0 - - - - - - -
25/09:00am 27.0 SE 16 23 1014.8 - 0.4 - - - - - - -
25/08:30am 27.3 SE 17 24 1014.6 - 0.4 - - - - - - -
25/08:00am 26.2 SE 16 22 1014.3 - 0.4 - - - - - - -
25/07:30am 25.9 SSE 14 19 1014.0 - 0.4 - - - - - - -
25/07:00am 25.7 SE 17 23 1013.6 - 0.4 - - - - - - -
25/06:30am 25.6 SE 17 22 1013.1 - 0.4 - - - - - - -
25/06:00am 25.5 SE 16 23 1012.8 - 0.4 - - - - - - -
25/05:30am 25.1 SSE 13 17 1012.7 - 0.4 - - - - - - -
25/05:00am 24.6 SSE 16 23 1012.5 - 0.4 - - - - - - -
25/04:30am 24.9 SE 16 21 1012.3 - 0.4 - - - - - - -
25/04:00am 24.6 SE 14 20 1012.2 - 0.4 - - - - - - -
25/03:30am 24.4 SE 15 21 1012.1 - 0.4 - - - - - - -
25/03:00am 24.2 SE 14 19 1012.1 - 0.4 - - - - - - -
25/02:30am 24.7 ESE 13 21 1012.1 - 0.4 - - - - - - -
25/02:00am 25.9 SE 17 26 1012.4 - 0.4 - - - - - - -
25/01:30am 26.1 SE 16 23 1012.6 - 0.4 - - - - - - -
25/01:00am 25.9 SE 16 23 1013.0 - 0.4 - - - - - - -
25/12:30am 26.0 SE 15 20 1013.3 - 0.4 - - - - - - -
25/12:00am 26.1 SE 16 22 1013.7 - 0.4 - - - - - - -
 
Date/Time
EST
Temp
°C
Wind Pressure Rain since
9am
mm
Weather Cloud Vis
km
Sea
Height
m
Swell
Dir  Spd
kts
Gust
kts
hPa Trend Height
m
Period
s
Dir
24/11:30pm 26.4 SE 16 23 1013.9 - 0.4 - - - - - - -
24/11:00pm 26.2 SE 17 23 1014.0 - 0.4 - - - - - - -
24/10:30pm 26.2 SE 17 25 1014.2 - 0.4 - - - - - - -
24/10:00pm 25.9 SE 17 23 1014.4 - 0.4 - - - - - - -
24/09:30pm 26.4 SE 17 23 1014.5 - 0.4 - - - - - - -
24/09:00pm 26.4 SE 19 25 1014.2 - 0.4 - - - - - - -
24/08:30pm 26.4 SE 19 25 1014.1 - 0.4 - - - - - - -
24/08:00pm 26.4 SE 18 24 1013.7 - 0.4 - - - - - - -
24/07:30pm 26.4 SE 16 24 1013.4 - 0.4 - - - - - - -
24/07:00pm 26.4 SE 19 25 1013.0 - 0.4 - - - - - - -
24/06:30pm 26.3 SE 18 27 1013.0 - 0.4 - - - - - - -
24/06:26pm 26.2 SE 17 27 1013.0 - 0.4 - - - - - - -
24/06:00pm 26.4 SE 18 25 1012.9 - 0.4 - - - - - - -
24/05:30pm 26.3 SE 19 25 1012.7 - 0.4 - - - - - - -
24/05:00pm 26.9 SE 19 25 1012.6 - 0.4 - - - - - - -
24/04:30pm 27.2 SE 19 25 1012.4 - 0.4 - - - - - - -
24/04:00pm 27.4 SE 19 25 1012.1 - 0.4 - - - - - - -
24/03:30pm 27.1 SE 16 22 1012.1 - 0.4 - - - - - - -
24/03:00pm 24.8 ESE 13 21 1012.4 - 0.4 Recent precip. - - - - - -
24/02:30pm 25.8 ESE 17 24 1012.6 - 0.2 - - - - - - -
24/02:29pm 26.0 ESE 17 24 1012.6 - 0.2 - - - - - - -
24/02:00pm 29.0 SE 20 26 1012.5 - 0.2 - - - - - - -
24/01:30pm 28.5 SE 20 25 1012.9 - 0.2 - - - - - - -
24/01:00pm 29.1 SE 18 25 1013.3 - 0.2 - - - - - - -
24/12:30pm 29.1 SE 17 23 1013.6 - 0.2 - - - - - - -
24/12:00pm 28.5 SE 20 27 1014.0 - 0.2 - - - - - - -
24/11:30am 29.0 SE 19 26 1014.3 - 0.2 - - - - - - -
24/11:00am 28.4 SE 19 26 1014.8 - 0.2 - - - - - - -
24/10:30am 28.4 SE 19 27 1014.9 - 0.2 - - - - - - -
24/10:00am 28.9 SE 19 28 1014.9 - 0.0 - - - - - - -
24/09:57am 28.6 SE 18 28 1014.9 - 0.0 - - - - - - -
24/09:30am 27.8 SE 18 25 1014.9 - 0.0 - - - - - - -
24/09:00am 26.7 SE 18 26 1014.7 - 0.0 - - - - - - -
24/08:30am 26.4 SE 16 24 1014.2 - 0.0 - - - - - - -
24/08:00am 25.9 SE 18 26 1013.9 - 0.0 - - - - - - -
24/07:30am 25.1 SE 17 25 1013.6 - 0.0 - - - - - - -
24/07:00am 24.9 SE 12 19 1013.4 - 0.0 - - - - - - -
24/06:33am 24.7 SE 18 28 1013.1 - 0.0 - - - - - - -
24/06:30am 24.6 SE 18 26 1013.1 - 0.0 - - - - - - -
24/06:00am 25.0 SE 16 22 1012.7 - 0.0 - - - - - - -
24/05:43am 25.9 SE 18 30 1012.5 - 0.0 - - - - - - -
24/05:30am 26.2 SE 18 25 1012.3 - 0.0 - - - - - - -
24/05:18am 26.1 SE 16 26 1012.3 - 0.0 - - - - - - -
24/05:00am 26.1 SE 17 25 1012.3 - 0.0 - - - - - - -
24/04:30am 25.8 SE 17 24 1012.2 - 0.0 - - - - - - -
24/04:00am 26.0 SE 19 24 1012.3 - 0.0 - - - - - - -
24/03:30am 25.9 SE 19 28 1012.4 - 0.0 - - - - - - -
24/03:00am 25.8 SE 17 25 1012.5 - 0.0 - - - - - - -
24/02:30am 25.8 SE 18 24 1012.7 - 0.0 - - - - - - -
24/02:00am 25.9 SE 19 25 1012.8 - 0.0 - - - - - - -
24/01:30am 25.9 SE 19 24 1013.3 - 0.0 - - - - - - -
24/01:00am 25.9 SSE 19 25 1013.5 - 0.0 - - - - - - -
24/12:30am 26.3 SE 19 24 1013.8 - 0.0 - - - - - - -
24/12:00am 26.2 SE 15 23 1014.2 - 0.0 - - - - - - -
 
Date/Time
EST
Temp
°C
Wind Pressure Rain since
9am
mm
Weather Cloud Vis
km
Sea
Height
m
Swell
Dir  Spd
kts
Gust
kts
hPa Trend Height
m
Period
s
Dir
23/11:30pm 26.2 SE 16 22 1014.6 - 0.0 - - - - - - -
23/11:00pm 26.1 SE 16 22 1014.6 - 0.0 - - - - - - -
23/10:30pm 26.2 SE 16 21 1014.9 - 0.0 - - - - - - -
23/10:00pm 26.2 SE 15 21 1015.1 - 0.0 - - - - - - -
23/09:30pm 25.7 SE 17 23 1015.3 - 0.0 - - - - - - -
23/09:00pm 26.6 SE 16 23 1015.1 - 0.0 - - - - - - -
23/08:30pm 26.0 SE 13 19 1015.1 - 0.0 - - - - - - -
23/08:00pm 25.5 SE 17 26 1015.0 - 0.0 - - - - - - -
23/07:56pm 26.3 SE 16 26 1014.8 - 0.0 - - - - - - -
23/07:30pm 26.6 SE 14 21 1014.3 - 0.0 - - - - - - -
23/07:00pm 26.5 SE 15 21 1013.9 - 0.0 - - - - - - -
23/06:30pm 26.6 SE 18 25 1013.5 - 0.0 - - - - - - -
23/06:00pm 26.6 SE 18 24 1013.0 - 0.0 - - - - - - -
23/05:30pm 26.8 SE 18 25 1012.6 - 0.0 - - - - - - -
23/05:00pm 27.0 SSE 20 27 1012.1 - 0.0 - - - - - - -
23/04:30pm 27.4 SSE 21 28 1011.9 - 0.0 - - - - - - -
23/04:00pm 28.1 SE 20 29 1011.8 - 0.0 - - - - - - -
23/03:30pm 28.5 SE 20 26 1012.0 - 0.0 - - - - - - -
23/03:00pm 29.0 SE 20 26 1011.9 - 0.0 - - - - - - -
23/02:30pm 29.4 SE 19 24 1012.4 - 0.0 - - - - - - -
23/02:00pm 29.2 SE 19 25 1012.8 - 0.0 - - - - - - -
23/01:30pm 29.2 SE 18 24 1013.5 - 0.0 - - - - - - -
23/01:00pm 28.7 SE 18 25 1013.8 - 0.0 - - - - - - -
23/12:30pm 29.3 SE 19 24 1014.0 - 0.0 - - - - - - -
23/12:00pm 28.7 SE 18 25 1014.4 - 0.0 - - - - - - -
23/11:30am 29.1 SE 19 25 1014.8 - 0.0 - - - - - - -
23/11:05am 28.3 SE 17 27 1015.1 - 0.0 - - - - - - -
23/11:00am 28.4 SE 18 25 1015.2 - 0.0 - - - - - - -
23/10:30am 28.8 SE 18 25 1015.3 - 0.0 - - - - - - -
23/10:00am 27.8 SE 18 26 1015.5 - 0.0 - - - - - - -
23/09:30am 28.1 SE 18 24 1015.1 - 0.0 - - - - - - -
23/09:00am 27.9 SE 17 25 1014.7 - 3.2 - - - - - - -
23/08:30am 26.9 SE 19 25 1014.2 - 3.2 - - - - - - -
23/08:14am 26.6 SE 19 29 1014.0 - 3.2 - - - - - - -
23/08:00am 26.2 SE 17 24 1013.8 - 3.2 - - - - - - -
23/07:30am 26.2 SE 18 26 1013.6 - 3.2 - - - - - - -
23/07:10am 26.1 SE 16 26 1013.3 - 3.2 - - - - - - -
23/07:00am 25.9 SE 18 25 1013.1 - 3.2 - - - - - - -
23/06:42am 25.8 SE 17 27 1012.9 - 3.2 - - - - - - -
23/06:30am 25.8 SE 18 25 1012.6 - 3.2 - - - - - - -
23/06:00am 25.8 SE 18 27 1012.3 - 3.2 - - - - - - -
23/05:30am 25.8 SE 17 26 1012.1 - 3.2 - - - - - - -
23/05:00am 25.8 SE 18 25 1011.9 - 3.2 - - - - - - -
23/04:43am 25.8 SE 17 27 1012.0 - 3.2 - - - - - - -
23/04:30am 25.8 SE 18 24 1012.0 - 3.2 - - - - - - -
23/04:00am 26.0 SE 17 25 1012.1 - 3.2 - - - - - - -
23/03:30am 25.9 SE 19 26 1012.0 - 3.2 - - - - - - -
23/03:00am 25.9 SE 18 24 1012.2 - 3.2 - - - - - - -
23/02:30am 25.9 SE 17 24 1012.4 - 3.2 - - - - - - -
23/02:00am 26.0 SE 19 25 1012.5 - 3.2 - - - - - - -
23/01:30am 26.0 SE 19 25 1012.8 - 3.2 - - - - - - -
23/01:00am 26.0 SE 18 26 1013.3 - 3.2 - - - - - - -
23/12:30am 26.1 SE 17 23 1013.7 - 3.2 - - - - - - -
23/12:00am 26.1 SE 17 22 1014.2 - 3.2 - - - - - - -
 
Date/Time
EST
Temp
°C
Wind Pressure Rain since
9am
mm
Weather Cloud Vis
km
Sea
Height
m
Swell
Dir  Spd
kts
Gust
kts
hPa Trend Height
m
Period
s
Dir
22/11:30pm 26.1 SE 15 21 1014.2 - 3.2 - - - - - - -
22/11:00pm 26.1 SE 17 25 1014.4 - 3.2 - - - - - - -
22/10:30pm 26.1 SE 16 22 1014.3 - 3.2 - - - - - - -
22/10:00pm 26.1 SE 17 25 1014.4 - 3.2 - - - - - - -
22/09:30pm 26.1 SE 17 23 1014.7 - 3.2 - - - - - - -
22/09:00pm 25.9 SE 15 22 1014.4 - 3.2 - - - - - - -
22/08:30pm 25.9 SE 17 23 1014.2 - 3.2 - - - - - - -
22/08:00pm 25.7 SE 17 23 1014.0 - 3.2 - - - - - - -
22/07:30pm 25.7 SE 15 22 1013.4 - 3.2 - - - - - - -
22/07:00pm 25.5 SE 17 23 1013.1 - 3.2 - - - - - - -
22/06:30pm 25.2 SE 16 23 1012.9 - 3.2 - - - - - - -
22/06:00pm 24.6 ESE 12 18 1012.9 - 3.2 Recent precip. - - - - - -
22/05:30pm 26.8 SE 17 25 1012.7 - 1.4 - - - - - - -
22/05:00pm 25.7 SSE 19 25 1012.4 - 1.4 - - - - - - -
22/04:30pm 25.2 SE 19 24 1012.3 - 1.4 - - - - - - -

Other Formats:

Comma delimited format used in spreadsheet applications
http://www.bom.gov.au/fwo/IDQ60701/IDQ60701.94188.axf

JavaScript Object Notation format (JSON) in row-major order
http://www.bom.gov.au/fwo/IDQ60701/IDQ60701.94188.json